sensor_id;sensor_type;location;lat;lon;timestamp;P1;durP1;ratioP1;P2;durP2;ratioP2
19030;SDS011;9648;51.130;13.978;2022-11-11T00:00:14;7.65;;;4.53;;
19030;SDS011;9648;51.130;13.978;2022-11-11T00:02:41;8.38;;;4.30;;
19030;SDS011;9648;51.130;13.978;2022-11-11T00:05:08;10.57;;;4.65;;
19030;SDS011;9648;51.130;13.978;2022-11-11T00:07:35;8.27;;;4.45;;
19030;SDS011;9648;51.130;13.978;2022-11-11T00:10:02;8.43;;;4.38;;
19030;SDS011;9648;51.130;13.978;2022-11-11T00:12:31;9.30;;;4.30;;
19030;SDS011;9648;51.130;13.978;2022-11-11T00:14:58;7.55;;;4.05;;
19030;SDS011;9648;51.130;13.978;2022-11-11T00:17:25;9.18;;;3.95;;
19030;SDS011;9648;51.130;13.978;2022-11-11T00:20:10;7.90;;;4.03;;
19030;SDS011;9648;51.130;13.978;2022-11-11T00:22:55;7.57;;;3.40;;
19030;SDS011;9648;51.130;13.978;2022-11-11T00:25:39;7.68;;;3.60;;
19030;SDS011;9648;51.130;13.978;2022-11-11T00:28:07;6.70;;;3.30;;
19030;SDS011;9648;51.130;13.978;2022-11-11T00:30:34;7.07;;;3.47;;
19030;SDS011;9648;51.130;13.978;2022-11-11T00:33:01;9.65;;;3.70;;
19030;SDS011;9648;51.130;13.978;2022-11-11T00:35:28;8.65;;;3.95;;
19030;SDS011;9648;51.130;13.978;2022-11-11T00:38:13;8.27;;;3.80;;
19030;SDS011;9648;51.130;13.978;2022-11-11T00:41:01;6.07;;;3.47;;
19030;SDS011;9648;51.130;13.978;2022-11-11T00:43:30;7.95;;;3.80;;
19030;SDS011;9648;51.130;13.978;2022-11-11T00:45:56;7.33;;;3.60;;
19030;SDS011;9648;51.130;13.978;2022-11-11T00:48:37;6.85;;;3.55;;
19030;SDS011;9648;51.130;13.978;2022-11-11T00:51:21;7.05;;;3.60;;
19030;SDS011;9648;51.130;13.978;2022-11-11T00:53:48;7.22;;;3.60;;
19030;SDS011;9648;51.130;13.978;2022-11-11T00:56:15;7.90;;;4.10;;
19030;SDS011;9648;51.130;13.978;2022-11-11T00:58:43;6.88;;;3.80;;
19030;SDS011;9648;51.130;13.978;2022-11-11T01:01:10;6.40;;;3.70;;
19030;SDS011;9648;51.130;13.978;2022-11-11T01:03:37;7.63;;;3.83;;
19030;SDS011;9648;51.130;13.978;2022-11-11T01:06:04;6.63;;;3.25;;
19030;SDS011;9648;51.130;13.978;2022-11-11T01:08:32;9.98;;;3.85;;
19030;SDS011;9648;51.130;13.978;2022-11-11T01:10:59;6.82;;;3.30;;
19030;SDS011;9648;51.130;13.978;2022-11-11T01:13:26;6.50;;;3.63;;
19030;SDS011;9648;51.130;13.978;2022-11-11T01:15:59;7.05;;;3.00;;
19030;SDS011;9648;51.130;13.978;2022-11-11T01:18:27;6.23;;;3.40;;
19030;SDS011;9648;51.130;13.978;2022-11-11T01:20:58;5.97;;;3.25;;
19030;SDS011;9648;51.130;13.978;2022-11-11T01:23:25;7.65;;;3.60;;
19030;SDS011;9648;51.130;13.978;2022-11-11T01:25:53;6.10;;;3.20;;
19030;SDS011;9648;51.130;13.978;2022-11-11T01:28:20;8.43;;;3.50;;
19030;SDS011;9648;51.130;13.978;2022-11-11T01:30:47;6.53;;;3.20;;
19030;SDS011;9648;51.130;13.978;2022-11-11T01:33:15;5.85;;;3.63;;
19030;SDS011;9648;51.130;13.978;2022-11-11T01:35:42;7.35;;;3.40;;
19030;SDS011;9648;51.130;13.978;2022-11-11T01:38:09;6.68;;;3.63;;
19030;SDS011;9648;51.130;13.978;2022-11-11T01:40:39;7.00;;;3.70;;
19030;SDS011;9648;51.130;13.978;2022-11-11T01:43:17;9.63;;;4.30;;
19030;SDS011;9648;51.130;13.978;2022-11-11T01:45:48;7.03;;;4.07;;
19030;SDS011;9648;51.130;13.978;2022-11-11T01:48:23;7.10;;;3.90;;
19030;SDS011;9648;51.130;13.978;2022-11-11T01:51:13;6.60;;;4.05;;
19030;SDS011;9648;51.130;13.978;2022-11-11T01:53:46;8.75;;;4.35;;
19030;SDS011;9648;51.130;13.978;2022-11-11T01:56:17;9.25;;;4.47;;
19030;SDS011;9648;51.130;13.978;2022-11-11T01:58:44;9.38;;;4.47;;
19030;SDS011;9648;51.130;13.978;2022-11-11T02:01:11;8.35;;;4.47;;
19030;SDS011;9648;51.130;13.978;2022-11-11T02:03:40;7.85;;;3.92;;
19030;SDS011;9648;51.130;13.978;2022-11-11T02:06:28;8.02;;;4.20;;
19030;SDS011;9648;51.130;13.978;2022-11-11T02:08:55;5.57;;;3.17;;
19030;SDS011;9648;51.130;13.978;2022-11-11T02:11:22;5.88;;;3.83;;
19030;SDS011;9648;51.130;13.978;2022-11-11T02:14:08;6.18;;;3.70;;
19030;SDS011;9648;51.130;13.978;2022-11-11T02:16:52;6.05;;;3.70;;
19030;SDS011;9648;51.130;13.978;2022-11-11T02:19:22;10.07;;;3.85;;
19030;SDS011;9648;51.130;13.978;2022-11-11T02:21:58;9.55;;;4.13;;
19030;SDS011;9648;51.130;13.978;2022-11-11T02:24:28;6.15;;;3.67;;
19030;SDS011;9648;51.130;13.978;2022-11-11T02:26:56;5.72;;;3.22;;
19030;SDS011;9648;51.130;13.978;2022-11-11T02:29:25;7.82;;;3.47;;
19030;SDS011;9648;51.130;13.978;2022-11-11T02:31:54;6.32;;;3.08;;
19030;SDS011;9648;51.130;13.978;2022-11-11T02:34:27;6.57;;;3.38;;
19030;SDS011;9648;51.130;13.978;2022-11-11T02:36:55;9.60;;;3.38;;
19030;SDS011;9648;51.130;13.978;2022-11-11T02:39:22;5.88;;;3.03;;
19030;SDS011;9648;51.130;13.978;2022-11-11T02:41:51;6.53;;;3.30;;
19030;SDS011;9648;51.130;13.978;2022-11-11T02:44:24;5.43;;;3.00;;
19030;SDS011;9648;51.130;13.978;2022-11-11T02:46:52;4.88;;;3.10;;
19030;SDS011;9648;51.130;13.978;2022-11-11T02:49:19;5.55;;;2.80;;
19030;SDS011;9648;51.130;13.978;2022-11-11T02:51:46;7.28;;;3.05;;
19030;SDS011;9648;51.130;13.978;2022-11-11T02:54:13;5.05;;;2.67;;
19030;SDS011;9648;51.130;13.978;2022-11-11T02:56:40;5.28;;;2.97;;
19030;SDS011;9648;51.130;13.978;2022-11-11T02:59:25;8.50;;;3.30;;
19030;SDS011;9648;51.130;13.978;2022-11-11T03:01:52;6.55;;;3.70;;
19030;SDS011;9648;51.130;13.978;2022-11-11T03:04:19;6.35;;;3.03;;
19030;SDS011;9648;51.130;13.978;2022-11-11T03:06:46;5.47;;;2.90;;
19030;SDS011;9648;51.130;13.978;2022-11-11T03:09:13;6.38;;;3.13;;
19030;SDS011;9648;51.130;13.978;2022-11-11T03:11:40;6.75;;;3.13;;
19030;SDS011;9648;51.130;13.978;2022-11-11T03:14:07;8.68;;;3.17;;
19030;SDS011;9648;51.130;13.978;2022-11-11T03:16:35;5.03;;;2.97;;
19030;SDS011;9648;51.130;13.978;2022-11-11T03:19:22;6.80;;;3.27;;
19030;SDS011;9648;51.130;13.978;2022-11-11T03:21:49;8.20;;;3.70;;
19030;SDS011;9648;51.130;13.978;2022-11-11T03:24:15;6.77;;;3.07;;
19030;SDS011;9648;51.130;13.978;2022-11-11T03:26:42;6.13;;;3.47;;
19030;SDS011;9648;51.130;13.978;2022-11-11T03:29:09;5.03;;;3.05;;
19030;SDS011;9648;51.130;13.978;2022-11-11T03:31:38;12.07;;;5.70;;
19030;SDS011;9648;51.130;13.978;2022-11-11T03:34:05;12.50;;;6.40;;
19030;SDS011;9648;51.130;13.978;2022-11-11T03:36:44;9.30;;;5.38;;
19030;SDS011;9648;51.130;13.978;2022-11-11T03:39:28;6.63;;;4.30;;
19030;SDS011;9648;51.130;13.978;2022-11-11T03:41:55;6.13;;;3.42;;
19030;SDS011;9648;51.130;13.978;2022-11-11T03:44:22;6.82;;;2.80;;
19030;SDS011;9648;51.130;13.978;2022-11-11T03:46:51;5.95;;;3.10;;
19030;SDS011;9648;51.130;13.978;2022-11-11T03:49:17;4.32;;;2.70;;
19030;SDS011;9648;51.130;13.978;2022-11-11T03:51:44;7.25;;;3.05;;
19030;SDS011;9648;51.130;13.978;2022-11-11T03:54:11;6.25;;;3.10;;
19030;SDS011;9648;51.130;13.978;2022-11-11T03:56:38;6.70;;;3.30;;
19030;SDS011;9648;51.130;13.978;2022-11-11T03:59:05;4.93;;;3.00;;
19030;SDS011;9648;51.130;13.978;2022-11-11T04:01:32;7.50;;;3.20;;
19030;SDS011;9648;51.130;13.978;2022-11-11T04:04:18;6.40;;;3.10;;
19030;SDS011;9648;51.130;13.978;2022-11-11T04:07:13;7.78;;;2.97;;
19030;SDS011;9648;51.130;13.978;2022-11-11T04:09:58;5.10;;;3.10;;
19030;SDS011;9648;51.130;13.978;2022-11-11T04:12:43;7.95;;;3.30;;
19030;SDS011;9648;51.130;13.978;2022-11-11T04:15:27;6.82;;;3.28;;
19030;SDS011;9648;51.130;13.978;2022-11-11T04:18:11;8.15;;;3.40;;
19030;SDS011;9648;51.130;13.978;2022-11-11T04:20:41;6.97;;;3.30;;
19030;SDS011;9648;51.130;13.978;2022-11-11T04:23:25;5.80;;;3.35;;
19030;SDS011;9648;51.130;13.978;2022-11-11T04:25:52;5.57;;;2.95;;
19030;SDS011;9648;51.130;13.978;2022-11-11T04:28:21;7.18;;;2.85;;
19030;SDS011;9648;51.130;13.978;2022-11-11T04:31:07;5.50;;;3.00;;
19030;SDS011;9648;51.130;13.978;2022-11-11T04:33:34;6.68;;;3.53;;
19030;SDS011;9648;51.130;13.978;2022-11-11T04:36:01;6.32;;;3.20;;
19030;SDS011;9648;51.130;13.978;2022-11-11T04:38:28;6.47;;;3.17;;
19030;SDS011;9648;51.130;13.978;2022-11-11T04:41:12;7.80;;;3.40;;
19030;SDS011;9648;51.130;13.978;2022-11-11T04:43:39;6.07;;;3.25;;
19030;SDS011;9648;51.130;13.978;2022-11-11T04:46:20;6.90;;;3.10;;
19030;SDS011;9648;51.130;13.978;2022-11-11T04:48:47;7.28;;;3.22;;
19030;SDS011;9648;51.130;13.978;2022-11-11T04:51:15;7.03;;;2.88;;
19030;SDS011;9648;51.130;13.978;2022-11-11T04:53:42;5.97;;;3.35;;
19030;SDS011;9648;51.130;13.978;2022-11-11T04:56:09;7.32;;;3.17;;
19030;SDS011;9648;51.130;13.978;2022-11-11T04:58:54;6.90;;;3.00;;
19030;SDS011;9648;51.130;13.978;2022-11-11T05:01:34;7.00;;;3.30;;
19030;SDS011;9648;51.130;13.978;2022-11-11T05:04:19;5.72;;;3.00;;
19030;SDS011;9648;51.130;13.978;2022-11-11T05:06:47;6.68;;;3.08;;
19030;SDS011;9648;51.130;13.978;2022-11-11T05:09:31;6.13;;;2.78;;
19030;SDS011;9648;51.130;13.978;2022-11-11T05:11:58;7.10;;;3.45;;
19030;SDS011;9648;51.130;13.978;2022-11-11T05:14:25;5.10;;;3.10;;
19030;SDS011;9648;51.130;13.978;2022-11-11T05:17:21;5.43;;;3.20;;
19030;SDS011;9648;51.130;13.978;2022-11-11T05:20:05;5.82;;;3.50;;
19030;SDS011;9648;51.130;13.978;2022-11-11T05:22:52;8.32;;;4.18;;
19030;SDS011;9648;51.130;13.978;2022-11-11T05:25:19;8.30;;;4.22;;
19030;SDS011;9648;51.130;13.978;2022-11-11T05:27:50;12.07;;;5.38;;
19030;SDS011;9648;51.130;13.978;2022-11-11T05:30:18;10.80;;;5.27;;
19030;SDS011;9648;51.130;13.978;2022-11-11T05:32:46;9.90;;;5.63;;
19030;SDS011;9648;51.130;13.978;2022-11-11T05:35:14;10.15;;;6.32;;
19030;SDS011;9648;51.130;13.978;2022-11-11T05:37:42;9.57;;;5.78;;
19030;SDS011;9648;51.130;13.978;2022-11-11T05:40:31;11.30;;;6.70;;
19030;SDS011;9648;51.130;13.978;2022-11-11T05:42:58;12.20;;;6.10;;
19030;SDS011;9648;51.130;13.978;2022-11-11T05:45:24;12.75;;;7.00;;
19030;SDS011;9648;51.130;13.978;2022-11-11T05:47:51;21.42;;;13.50;;
19030;SDS011;9648;51.130;13.978;2022-11-11T05:50:18;26.20;;;16.00;;
19030;SDS011;9648;51.130;13.978;2022-11-11T05:52:48;25.35;;;15.73;;
19030;SDS011;9648;51.130;13.978;2022-11-11T05:55:15;16.48;;;9.98;;
19030;SDS011;9648;51.130;13.978;2022-11-11T05:57:43;17.55;;;10.60;;
19030;SDS011;9648;51.130;13.978;2022-11-11T06:00:11;21.37;;;12.23;;
19030;SDS011;9648;51.130;13.978;2022-11-11T06:02:38;18.33;;;9.80;;
19030;SDS011;9648;51.130;13.978;2022-11-11T06:05:05;16.23;;;8.82;;
19030;SDS011;9648;51.130;13.978;2022-11-11T06:07:35;10.07;;;6.35;;
19030;SDS011;9648;51.130;13.978;2022-11-11T06:10:04;12.38;;;6.90;;
19030;SDS011;9648;51.130;13.978;2022-11-11T06:12:50;10.98;;;6.55;;
19030;SDS011;9648;51.130;13.978;2022-11-11T06:15:36;8.60;;;5.75;;
19030;SDS011;9648;51.130;13.978;2022-11-11T06:18:04;9.75;;;5.20;;
19030;SDS011;9648;51.130;13.978;2022-11-11T06:20:35;9.00;;;5.57;;
19030;SDS011;9648;51.130;13.978;2022-11-11T06:23:02;10.10;;;5.03;;
19030;SDS011;9648;51.130;13.978;2022-11-11T06:25:31;10.45;;;5.65;;
19030;SDS011;9648;51.130;13.978;2022-11-11T06:28:18;12.95;;;7.43;;
19030;SDS011;9648;51.130;13.978;2022-11-11T06:30:45;14.63;;;8.47;;
19030;SDS011;9648;51.130;13.978;2022-11-11T06:33:12;15.73;;;9.32;;
19030;SDS011;9648;51.130;13.978;2022-11-11T06:35:39;12.40;;;8.50;;
19030;SDS011;9648;51.130;13.978;2022-11-11T06:38:08;13.00;;;8.20;;
19030;SDS011;9648;51.130;13.978;2022-11-11T06:40:39;12.90;;;7.85;;
19030;SDS011;9648;51.130;13.978;2022-11-11T06:43:08;9.52;;;6.10;;
19030;SDS011;9648;51.130;13.978;2022-11-11T06:45:36;9.50;;;6.20;;
19030;SDS011;9648;51.130;13.978;2022-11-11T06:48:04;10.93;;;6.35;;
19030;SDS011;9648;51.130;13.978;2022-11-11T06:50:31;14.05;;;8.27;;
19030;SDS011;9648;51.130;13.978;2022-11-11T06:53:02;14.48;;;9.15;;
19030;SDS011;9648;51.130;13.978;2022-11-11T06:55:31;22.25;;;14.00;;
19030;SDS011;9648;51.130;13.978;2022-11-11T06:58:03;20.45;;;13.35;;
19030;SDS011;9648;51.130;13.978;2022-11-11T07:00:30;20.95;;;12.50;;
19030;SDS011;9648;51.130;13.978;2022-11-11T07:02:58;18.07;;;11.57;;
19030;SDS011;9648;51.130;13.978;2022-11-11T07:05:25;19.52;;;12.60;;
19030;SDS011;9648;51.130;13.978;2022-11-11T07:07:52;15.25;;;11.40;;
19030;SDS011;9648;51.130;13.978;2022-11-11T07:10:19;17.77;;;12.20;;
19030;SDS011;9648;51.130;13.978;2022-11-11T07:12:46;17.95;;;12.43;;
19030;SDS011;9648;51.130;13.978;2022-11-11T07:15:13;14.75;;;10.38;;
19030;SDS011;9648;51.130;13.978;2022-11-11T07:17:40;14.77;;;9.73;;
19030;SDS011;9648;51.130;13.978;2022-11-11T07:20:09;14.15;;;8.02;;
19030;SDS011;9648;51.130;13.978;2022-11-11T07:22:36;11.02;;;7.85;;
19030;SDS011;9648;51.130;13.978;2022-11-11T07:25:03;11.18;;;7.10;;
19030;SDS011;9648;51.130;13.978;2022-11-11T07:27:31;10.15;;;7.30;;
19030;SDS011;9648;51.130;13.978;2022-11-11T07:30:01;11.50;;;7.07;;
19030;SDS011;9648;51.130;13.978;2022-11-11T07:32:28;11.02;;;7.15;;
19030;SDS011;9648;51.130;13.978;2022-11-11T07:34:55;12.85;;;8.00;;
19030;SDS011;9648;51.130;13.978;2022-11-11T07:37:24;14.15;;;8.07;;
19030;SDS011;9648;51.130;13.978;2022-11-11T07:39:51;16.65;;;8.38;;
19030;SDS011;9648;51.130;13.978;2022-11-11T07:42:18;14.10;;;8.50;;
19030;SDS011;9648;51.130;13.978;2022-11-11T07:44:45;14.93;;;8.57;;
19030;SDS011;9648;51.130;13.978;2022-11-11T07:47:12;13.25;;;8.40;;
19030;SDS011;9648;51.130;13.978;2022-11-11T07:49:39;13.82;;;7.70;;
19030;SDS011;9648;51.130;13.978;2022-11-11T07:52:06;12.02;;;5.93;;
19030;SDS011;9648;51.130;13.978;2022-11-11T07:54:34;9.77;;;5.78;;
19030;SDS011;9648;51.130;13.978;2022-11-11T07:57:01;10.95;;;5.38;;
19030;SDS011;9648;51.130;13.978;2022-11-11T07:59:28;9.88;;;5.38;;
19030;SDS011;9648;51.130;13.978;2022-11-11T08:01:55;9.95;;;5.80;;
19030;SDS011;9648;51.130;13.978;2022-11-11T08:04:22;7.82;;;4.45;;
19030;SDS011;9648;51.130;13.978;2022-11-11T08:06:48;6.80;;;4.07;;
19030;SDS011;9648;51.130;13.978;2022-11-11T08:09:15;5.88;;;3.70;;
19030;SDS011;9648;51.130;13.978;2022-11-11T08:11:44;7.93;;;3.57;;
19030;SDS011;9648;51.130;13.978;2022-11-11T08:14:28;8.70;;;3.73;;
19030;SDS011;9648;51.130;13.978;2022-11-11T08:16:55;6.45;;;3.50;;
19030;SDS011;9648;51.130;13.978;2022-11-11T08:19:22;7.25;;;3.67;;
19030;SDS011;9648;51.130;13.978;2022-11-11T08:21:50;6.82;;;4.15;;
19030;SDS011;9648;51.130;13.978;2022-11-11T08:24:17;5.88;;;3.83;;
19030;SDS011;9648;51.130;13.978;2022-11-11T08:26:45;6.28;;;3.42;;
19030;SDS011;9648;51.130;13.978;2022-11-11T08:29:13;9.13;;;3.85;;
19030;SDS011;9648;51.130;13.978;2022-11-11T08:31:40;6.97;;;3.87;;
19030;SDS011;9648;51.130;13.978;2022-11-11T08:34:07;7.82;;;4.00;;
19030;SDS011;9648;51.130;13.978;2022-11-11T08:36:34;5.60;;;3.72;;
19030;SDS011;9648;51.130;13.978;2022-11-11T08:39:01;5.95;;;4.10;;
19030;SDS011;9648;51.130;13.978;2022-11-11T08:41:28;7.38;;;3.97;;
19030;SDS011;9648;51.130;13.978;2022-11-11T08:43:56;9.57;;;4.20;;
19030;SDS011;9648;51.130;13.978;2022-11-11T08:46:24;8.23;;;4.40;;
19030;SDS011;9648;51.130;13.978;2022-11-11T08:48:51;7.65;;;4.13;;
19030;SDS011;9648;51.130;13.978;2022-11-11T08:51:18;7.10;;;4.43;;
19030;SDS011;9648;51.130;13.978;2022-11-11T08:53:45;8.25;;;4.32;;
19030;SDS011;9648;51.130;13.978;2022-11-11T08:56:12;7.53;;;4.05;;
19030;SDS011;9648;51.130;13.978;2022-11-11T08:58:39;11.10;;;4.70;;
19030;SDS011;9648;51.130;13.978;2022-11-11T09:01:10;6.43;;;4.20;;
19030;SDS011;9648;51.130;13.978;2022-11-11T09:03:38;7.45;;;4.35;;
19030;SDS011;9648;51.130;13.978;2022-11-11T09:06:08;7.33;;;3.90;;
19030;SDS011;9648;51.130;13.978;2022-11-11T09:08:35;8.57;;;3.85;;
19030;SDS011;9648;51.130;13.978;2022-11-11T09:11:02;8.65;;;3.97;;
19030;SDS011;9648;51.130;13.978;2022-11-11T09:13:29;7.72;;;3.50;;
19030;SDS011;9648;51.130;13.978;2022-11-11T09:15:56;6.22;;;3.05;;
19030;SDS011;9648;51.130;13.978;2022-11-11T09:18:25;7.72;;;3.10;;
19030;SDS011;9648;51.130;13.978;2022-11-11T09:20:52;4.65;;;2.40;;
19030;SDS011;9648;51.130;13.978;2022-11-11T09:23:18;5.07;;;2.42;;
19030;SDS011;9648;51.130;13.978;2022-11-11T09:25:45;5.55;;;2.78;;
19030;SDS011;9648;51.130;13.978;2022-11-11T09:28:12;6.00;;;2.40;;
19030;SDS011;9648;51.130;13.978;2022-11-11T09:30:39;6.47;;;2.80;;
19030;SDS011;9648;51.130;13.978;2022-11-11T09:33:06;5.50;;;2.75;;
19030;SDS011;9648;51.130;13.978;2022-11-11T09:35:35;7.30;;;2.72;;
19030;SDS011;9648;51.130;13.978;2022-11-11T09:38:02;5.77;;;2.43;;
19030;SDS011;9648;51.130;13.978;2022-11-11T09:40:33;5.47;;;2.60;;
19030;SDS011;9648;51.130;13.978;2022-11-11T09:43:10;6.87;;;2.70;;
19030;SDS011;9648;51.130;13.978;2022-11-11T09:45:48;5.85;;;2.60;;
19030;SDS011;9648;51.130;13.978;2022-11-11T09:48:29;5.43;;;2.60;;
19030;SDS011;9648;51.130;13.978;2022-11-11T09:51:08;6.03;;;2.72;;
19030;SDS011;9648;51.130;13.978;2022-11-11T09:53:44;6.20;;;2.83;;
19030;SDS011;9648;51.130;13.978;2022-11-11T09:56:16;5.32;;;2.63;;
19030;SDS011;9648;51.130;13.978;2022-11-11T09:58:45;6.63;;;2.40;;
19030;SDS011;9648;51.130;13.978;2022-11-11T10:01:17;6.45;;;3.00;;
19030;SDS011;9648;51.130;13.978;2022-11-11T10:03:47;7.50;;;3.00;;
19030;SDS011;9648;51.130;13.978;2022-11-11T10:06:27;4.55;;;2.75;;
19030;SDS011;9648;51.130;13.978;2022-11-11T10:08:58;5.80;;;2.88;;
19030;SDS011;9648;51.130;13.978;2022-11-11T10:11:29;6.75;;;3.03;;
19030;SDS011;9648;51.130;13.978;2022-11-11T10:14:08;5.57;;;2.97;;
19030;SDS011;9648;51.130;13.978;2022-11-11T10:16:37;6.68;;;3.33;;
19030;SDS011;9648;51.130;13.978;2022-11-11T10:19:16;9.23;;;3.33;;
19030;SDS011;9648;51.130;13.978;2022-11-11T10:21:55;6.40;;;3.40;;
19030;SDS011;9648;51.130;13.978;2022-11-11T10:24:27;5.53;;;3.35;;
19030;SDS011;9648;51.130;13.978;2022-11-11T10:26:55;5.47;;;3.28;;
19030;SDS011;9648;51.130;13.978;2022-11-11T10:29:25;6.65;;;3.28;;
19030;SDS011;9648;51.130;13.978;2022-11-11T10:32:02;7.10;;;3.42;;
19030;SDS011;9648;51.130;13.978;2022-11-11T10:34:37;5.28;;;3.20;;
19030;SDS011;9648;51.130;13.978;2022-11-11T10:37:13;6.68;;;3.20;;
19030;SDS011;9648;51.130;13.978;2022-11-11T10:39:47;5.82;;;2.95;;
19030;SDS011;9648;51.130;13.978;2022-11-11T10:42:25;6.57;;;3.28;;
19030;SDS011;9648;51.130;13.978;2022-11-11T10:44:53;6.32;;;3.25;;
19030;SDS011;9648;51.130;13.978;2022-11-11T10:47:28;5.43;;;2.90;;
19030;SDS011;9648;51.130;13.978;2022-11-11T10:50:06;6.32;;;3.35;;
19030;SDS011;9648;51.130;13.978;2022-11-11T10:52:44;6.90;;;3.20;;
19030;SDS011;9648;51.130;13.978;2022-11-11T10:55:17;5.85;;;3.20;;
19030;SDS011;9648;51.130;13.978;2022-11-11T10:57:47;6.63;;;3.35;;
19030;SDS011;9648;51.130;13.978;2022-11-11T11:00:18;7.38;;;3.40;;
19030;SDS011;9648;51.130;13.978;2022-11-11T11:02:47;6.32;;;3.20;;
19030;SDS011;9648;51.130;13.978;2022-11-11T11:05:21;6.32;;;3.00;;
19030;SDS011;9648;51.130;13.978;2022-11-11T11:07:54;4.38;;;2.70;;
19030;SDS011;9648;51.130;13.978;2022-11-11T11:10:25;5.05;;;2.95;;
19030;SDS011;9648;51.130;13.978;2022-11-11T11:12:59;5.75;;;2.90;;
19030;SDS011;9648;51.130;13.978;2022-11-11T11:15:31;4.70;;;2.78;;
19030;SDS011;9648;51.130;13.978;2022-11-11T11:18:03;4.63;;;2.80;;
19030;SDS011;9648;51.130;13.978;2022-11-11T11:20:34;4.87;;;2.70;;
19030;SDS011;9648;51.130;13.978;2022-11-11T11:23:03;6.00;;;3.20;;
19030;SDS011;9648;51.130;13.978;2022-11-11T11:25:31;5.30;;;2.83;;
19030;SDS011;9648;51.130;13.978;2022-11-11T11:28:05;4.95;;;2.75;;
19030;SDS011;9648;51.130;13.978;2022-11-11T11:30:34;5.68;;;2.92;;
19030;SDS011;9648;51.130;13.978;2022-11-11T11:33:01;7.95;;;3.13;;
19030;SDS011;9648;51.130;13.978;2022-11-11T11:35:30;5.93;;;3.10;;
19030;SDS011;9648;51.130;13.978;2022-11-11T11:37:58;5.82;;;2.83;;
19030;SDS011;9648;51.130;13.978;2022-11-11T11:40:27;6.97;;;2.97;;
19030;SDS011;9648;51.130;13.978;2022-11-11T11:43:22;5.97;;;3.08;;
19030;SDS011;9648;51.130;13.978;2022-11-11T11:45:58;6.47;;;3.20;;
19030;SDS011;9648;51.130;13.978;2022-11-11T11:48:31;6.85;;;3.05;;
19030;SDS011;9648;51.130;13.978;2022-11-11T11:51:12;5.10;;;2.90;;
19030;SDS011;9648;51.130;13.978;2022-11-11T11:53:52;4.32;;;2.55;;
19030;SDS011;9648;51.130;13.978;2022-11-11T11:56:34;4.60;;;2.50;;
19030;SDS011;9648;51.130;13.978;2022-11-11T11:59:04;4.53;;;2.80;;
19030;SDS011;9648;51.130;13.978;2022-11-11T12:01:39;6.78;;;3.08;;
19030;SDS011;9648;51.130;13.978;2022-11-11T12:04:26;5.20;;;2.70;;
19030;SDS011;9648;51.130;13.978;2022-11-11T12:07:25;5.20;;;2.90;;
19030;SDS011;9648;51.130;13.978;2022-11-11T12:10:04;4.30;;;2.70;;
19030;SDS011;9648;51.130;13.978;2022-11-11T12:12:42;3.83;;;2.25;;
19030;SDS011;9648;51.130;13.978;2022-11-11T12:15:20;5.60;;;2.40;;
19030;SDS011;9648;51.130;13.978;2022-11-11T12:18:00;5.20;;;2.40;;
19030;SDS011;9648;51.130;13.978;2022-11-11T12:20:39;5.32;;;2.40;;
19030;SDS011;9648;51.130;13.978;2022-11-11T12:23:24;3.97;;;2.20;;
19030;SDS011;9648;51.130;13.978;2022-11-11T12:26:09;3.20;;;2.17;;
19030;SDS011;9648;51.130;13.978;2022-11-11T12:28:50;6.43;;;2.67;;
19030;SDS011;9648;51.130;13.978;2022-11-11T12:31:27;5.90;;;2.95;;
19030;SDS011;9648;51.130;13.978;2022-11-11T12:34:17;4.80;;;2.63;;
19030;SDS011;9648;51.130;13.978;2022-11-11T12:36:56;8.13;;;3.70;;
19030;SDS011;9648;51.130;13.978;2022-11-11T12:42:20;9.02;;;3.85;;
19030;SDS011;9648;51.130;13.978;2022-11-11T12:45:01;9.45;;;4.43;;
19030;SDS011;9648;51.130;13.978;2022-11-11T12:47:37;7.85;;;3.33;;
19030;SDS011;9648;51.130;13.978;2022-11-11T12:50:13;5.75;;;2.30;;
19030;SDS011;9648;51.130;13.978;2022-11-11T12:52:48;7.90;;;2.93;;
19030;SDS011;9648;51.130;13.978;2022-11-11T12:55:27;5.88;;;2.30;;
19030;SDS011;9648;51.130;13.978;2022-11-11T12:58:07;4.25;;;2.00;;
19030;SDS011;9648;51.130;13.978;2022-11-11T13:00:48;4.60;;;2.03;;
19030;SDS011;9648;51.130;13.978;2022-11-11T13:03:28;4.13;;;1.83;;
19030;SDS011;9648;51.130;13.978;2022-11-11T13:06:08;6.72;;;1.52;;
19030;SDS011;9648;51.130;13.978;2022-11-11T13:08:51;3.43;;;1.27;;
19030;SDS011;9648;51.130;13.978;2022-11-11T13:11:31;2.92;;;1.30;;
19030;SDS011;9648;51.130;13.978;2022-11-11T13:14:14;4.05;;;1.55;;
19030;SDS011;9648;51.130;13.978;2022-11-11T13:16:59;4.10;;;1.98;;
19030;SDS011;9648;51.130;13.978;2022-11-11T13:19:28;4.00;;;2.47;;
19030;SDS011;9648;51.130;13.978;2022-11-11T13:22:00;4.35;;;2.20;;
19030;SDS011;9648;51.130;13.978;2022-11-11T13:24:32;5.53;;;2.60;;
19030;SDS011;9648;51.130;13.978;2022-11-11T13:27:02;3.03;;;2.20;;
19030;SDS011;9648;51.130;13.978;2022-11-11T13:32:31;4.57;;;2.55;;
19030;SDS011;9648;51.130;13.978;2022-11-11T13:35:08;4.63;;;2.65;;
19030;SDS011;9648;51.130;13.978;2022-11-11T13:37:43;4.27;;;3.00;;
19030;SDS011;9648;51.130;13.978;2022-11-11T13:40:21;5.00;;;2.88;;
19030;SDS011;9648;51.130;13.978;2022-11-11T13:42:54;5.90;;;2.90;;
19030;SDS011;9648;51.130;13.978;2022-11-11T13:45:23;4.07;;;2.85;;
19030;SDS011;9648;51.130;13.978;2022-11-11T13:47:56;6.40;;;3.10;;
19030;SDS011;9648;51.130;13.978;2022-11-11T13:50:24;5.68;;;3.33;;
19030;SDS011;9648;51.130;13.978;2022-11-11T13:52:55;5.88;;;3.30;;
19030;SDS011;9648;51.130;13.978;2022-11-11T13:55:28;5.63;;;3.17;;
19030;SDS011;9648;51.130;13.978;2022-11-11T13:57:57;4.60;;;3.00;;
19030;SDS011;9648;51.130;13.978;2022-11-11T14:00:26;6.55;;;3.50;;
19030;SDS011;9648;51.130;13.978;2022-11-11T14:09:08;6.55;;;4.00;;
19030;SDS011;9648;51.130;13.978;2022-11-11T14:11:35;7.03;;;4.18;;
19030;SDS011;9648;51.130;13.978;2022-11-11T14:17:11;8.05;;;4.10;;
19030;SDS011;9648;51.130;13.978;2022-11-11T14:19:40;8.70;;;3.80;;
19030;SDS011;9648;51.130;13.978;2022-11-11T14:22:26;6.60;;;3.85;;
19030;SDS011;9648;51.130;13.978;2022-11-11T14:24:55;6.38;;;3.63;;
19030;SDS011;9648;51.130;13.978;2022-11-11T14:27:43;6.25;;;3.80;;
19030;SDS011;9648;51.130;13.978;2022-11-11T14:30:12;8.45;;;4.05;;
19030;SDS011;9648;51.130;13.978;2022-11-11T14:33:03;6.57;;;3.88;;
19030;SDS011;9648;51.130;13.978;2022-11-11T14:35:38;6.15;;;4.00;;
19030;SDS011;9648;51.130;13.978;2022-11-11T14:38:16;5.72;;;3.78;;
19030;SDS011;9648;51.130;13.978;2022-11-11T14:47:16;5.90;;;4.07;;
19030;SDS011;9648;51.130;13.978;2022-11-11T14:49:44;6.47;;;4.10;;
19030;SDS011;9648;51.130;13.978;2022-11-11T14:52:16;8.60;;;4.60;;
19030;SDS011;9648;51.130;13.978;2022-11-11T14:57:39;8.40;;;4.82;;
19030;SDS011;9648;51.130;13.978;2022-11-11T15:00:10;9.18;;;5.93;;
19030;SDS011;9648;51.130;13.978;2022-11-11T15:02:41;8.48;;;5.82;;
19030;SDS011;9648;51.130;13.978;2022-11-11T15:05:16;8.55;;;5.40;;
19030;SDS011;9648;51.130;13.978;2022-11-11T15:07:57;9.57;;;5.13;;
19030;SDS011;9648;51.130;13.978;2022-11-11T15:10:36;8.23;;;5.45;;
19030;SDS011;9648;51.130;13.978;2022-11-11T15:13:13;12.35;;;6.88;;
19030;SDS011;9648;51.130;13.978;2022-11-11T15:16:04;10.13;;;7.38;;
19030;SDS011;9648;51.130;13.978;2022-11-11T15:18:44;9.93;;;7.57;;
19030;SDS011;9648;51.130;13.978;2022-11-11T15:21:21;9.30;;;6.35;;
19030;SDS011;9648;51.130;13.978;2022-11-11T15:24:01;8.80;;;5.50;;
19030;SDS011;9648;51.130;13.978;2022-11-11T15:26:38;8.77;;;5.15;;
19030;SDS011;9648;51.130;13.978;2022-11-11T15:29:18;9.88;;;5.93;;
19030;SDS011;9648;51.130;13.978;2022-11-11T15:32:07;12.75;;;6.25;;
19030;SDS011;9648;51.130;13.978;2022-11-11T15:34:44;9.02;;;5.93;;
19030;SDS011;9648;51.130;13.978;2022-11-11T15:37:19;13.85;;;6.63;;
19030;SDS011;9648;51.130;13.978;2022-11-11T15:39:52;8.95;;;6.22;;